createdAt,value
2018-08-19T00:00:43.558Z,1006.67
2018-08-19T00:01:43.506Z,1006.62
2018-08-19T00:02:43.468Z,1006.61
2018-08-19T00:03:43.449Z,1006.61
2018-08-19T00:04:43.376Z,1006.65
2018-08-19T00:05:43.319Z,1006.66
2018-08-19T00:06:43.271Z,1006.68
2018-08-19T00:07:43.225Z,1006.69
2018-08-19T00:08:43.178Z,1006.70
2018-08-19T00:09:43.157Z,1006.73
2018-08-19T00:10:43.090Z,1006.75
2018-08-19T00:11:43.082Z,1006.78
2018-08-19T00:12:43.000Z,1006.80
2018-08-19T00:13:42.965Z,1006.79
2018-08-19T00:14:42.949Z,1006.84
2018-08-19T00:15:42.879Z,1006.86
2018-08-19T00:16:42.838Z,1006.86
2018-08-19T00:17:42.797Z,1006.90
2018-08-19T00:18:42.763Z,1006.92
2018-08-19T00:19:42.751Z,1006.99
2018-08-19T00:20:42.687Z,1007.01
2018-08-19T00:21:42.666Z,1006.99
2018-08-19T00:22:42.610Z,1006.98
2018-08-19T00:23:42.564Z,1006.97
2018-08-19T00:24:42.556Z,1006.96
2018-08-19T00:25:42.483Z,1007.03
2018-08-19T00:26:42.442Z,1007.01
2018-08-19T00:27:42.401Z,1007.00
2018-08-19T00:28:42.363Z,1006.94
2018-08-19T00:29:42.370Z,1006.91
2018-08-19T00:30:42.278Z,1006.97
2018-08-19T00:31:42.242Z,1006.99
2018-08-19T00:32:42.201Z,1006.97
2018-08-19T00:33:42.156Z,1006.95
2018-08-19T00:34:42.114Z,1006.95
2018-08-19T00:35:42.095Z,1006.95
2018-08-19T00:36:42.026Z,1006.91
2018-08-19T00:37:41.994Z,1006.94
2018-08-19T00:38:41.936Z,1006.91
2018-08-19T00:39:41.886Z,1006.92
2018-08-19T00:40:41.863Z,1006.89
2018-08-19T00:41:41.801Z,1006.86
2018-08-19T00:42:41.748Z,1006.85
2018-08-19T00:43:41.738Z,1006.86
2018-08-19T00:44:41.665Z,1006.84
2018-08-19T00:45:41.648Z,1006.84
2018-08-19T00:46:41.585Z,1006.85
2018-08-19T00:47:41.545Z,1006.84
2018-08-19T00:48:41.503Z,1006.84
2018-08-19T00:49:41.464Z,1006.85
2018-08-19T00:50:41.457Z,1006.84
2018-08-19T00:51:41.384Z,1006.85
2018-08-19T00:52:41.343Z,1006.87
2018-08-19T00:53:41.307Z,1006.83
2018-08-19T00:54:41.270Z,1006.80
2018-08-19T00:55:41.257Z,1006.81
2018-08-19T00:56:41.195Z,1006.81
2018-08-19T00:57:41.161Z,1006.85
2018-08-19T00:58:41.126Z,1006.81
2018-08-19T00:59:41.090Z,1006.80
2018-08-19T01:00:41.087Z,1006.81
2018-08-19T01:01:41.026Z,1006.80
2018-08-19T01:02:40.993Z,1006.81
2018-08-19T01:03:40.960Z,1006.77
2018-08-19T01:04:40.924Z,1006.82
2018-08-19T01:05:40.917Z,1006.80
2018-08-19T01:06:40.858Z,1006.80
2018-08-19T01:07:40.821Z,1006.76
2018-08-19T01:08:40.787Z,1006.78
2018-08-19T01:09:40.749Z,1006.79
2018-08-19T01:10:40.753Z,1006.79
2018-08-19T01:11:40.681Z,1006.73
2018-08-19T01:12:40.649Z,1006.73
2018-08-19T01:13:40.615Z,1006.73
2018-08-19T01:14:40.580Z,1006.76
2018-08-19T01:15:40.549Z,1006.78
2018-08-19T01:16:40.544Z,1006.78
2018-08-19T01:17:40.488Z,1006.80
2018-08-19T01:18:40.462Z,1006.80
2018-08-19T01:19:40.440Z,1006.83
2018-08-19T01:20:40.406Z,1006.84
2018-08-19T01:21:40.405Z,1006.86
2018-08-19T01:22:40.350Z,1006.82
2018-08-19T01:23:40.314Z,1006.82
2018-08-19T01:24:40.302Z,1006.88
2018-08-19T01:25:40.272Z,1006.82
2018-08-19T01:26:40.285Z,1006.86
2018-08-19T01:27:40.217Z,1006.85
2018-08-19T01:28:40.185Z,1006.85
2018-08-19T01:29:40.153Z,1006.86
2018-08-19T01:30:40.130Z,1006.87
2018-08-19T01:31:40.139Z,1006.86
2018-08-19T01:32:40.081Z,1006.86
2018-08-19T01:33:40.056Z,1006.80
2018-08-19T01:34:40.030Z,1006.85
2018-08-19T01:35:40.000Z,1006.87
2018-08-19T01:36:40.012Z,1006.91
2018-08-19T01:37:39.948Z,1006.91
2018-08-19T01:38:39.916Z,1006.93
2018-08-19T01:39:39.887Z,1006.92
2018-08-19T01:40:39.862Z,1006.93
2018-08-19T01:41:39.834Z,1006.93
2018-08-19T01:42:39.838Z,1006.90
2018-08-19T01:43:39.789Z,1006.95
2018-08-19T01:44:39.753Z,1006.92
2018-08-19T01:45:39.726Z,1006.96
2018-08-19T01:46:39.701Z,1006.94
2018-08-19T01:47:39.705Z,1006.94
2018-08-19T01:48:39.640Z,1006.96
2018-08-19T01:49:39.613Z,1006.97
2018-08-19T01:50:39.577Z,1006.93
2018-08-19T01:51:39.554Z,1006.96
2018-08-19T01:52:39.545Z,1006.95
2018-08-19T01:53:39.489Z,1006.95
2018-08-19T01:54:39.468Z,1006.97
2018-08-19T01:55:39.441Z,1006.93
2018-08-19T01:56:39.415Z,1006.96
2018-08-19T01:57:39.429Z,1006.95
2018-08-19T01:58:39.377Z,1006.97
2018-08-19T01:59:39.337Z,1006.97
2018-08-19T02:00:39.308Z,1006.99
2018-08-19T02:01:39.296Z,1006.97
2018-08-19T02:02:39.262Z,1006.98
2018-08-19T02:03:39.275Z,1006.99
2018-08-19T02:04:39.219Z,1007.00
2018-08-19T02:05:39.199Z,1006.96
2018-08-19T02:06:39.169Z,1006.96
2018-08-19T02:07:39.147Z,1006.92
2018-08-19T02:08:39.149Z,1006.90
2018-08-19T02:09:39.099Z,1006.89
2018-08-19T02:10:39.080Z,1006.88
2018-08-19T02:11:39.055Z,1006.87
2018-08-19T02:12:39.025Z,1006.89
2018-08-19T02:13:39.070Z,1006.92
2018-08-19T02:14:38.985Z,1006.92
2018-08-19T02:15:38.954Z,1006.87
2018-08-19T02:16:38.928Z,1006.91
2018-08-19T02:17:38.903Z,1006.90
2018-08-19T02:18:38.883Z,1006.91
2018-08-19T02:19:38.886Z,1006.88
2018-08-19T02:20:38.929Z,1006.87
2018-08-19T02:21:38.816Z,1006.86
2018-08-19T02:22:38.791Z,1006.87
2018-08-19T02:23:38.766Z,1006.90
2018-08-19T02:24:38.772Z,1006.90
2018-08-19T02:25:38.724Z,1006.92
2018-08-19T02:26:38.700Z,1006.94
2018-08-19T02:27:38.684Z,1006.94
2018-08-19T02:28:38.670Z,1006.94
2018-08-19T02:29:38.664Z,1006.94
2018-08-19T02:30:38.620Z,1006.90
2018-08-19T02:31:38.605Z,1006.89
2018-08-19T02:32:38.592Z,1006.93
2018-08-19T02:33:38.562Z,1006.92
2018-08-19T02:34:38.572Z,1006.93
2018-08-19T02:35:38.528Z,1006.95
2018-08-19T02:36:38.520Z,1006.95
2018-08-19T02:37:38.505Z,1007.00
2018-08-19T02:38:38.483Z,1006.99
2018-08-19T02:39:38.503Z,1006.96
2018-08-19T02:40:38.458Z,1006.93
2018-08-19T02:41:38.455Z,1006.94
2018-08-19T02:42:38.421Z,1006.96
2018-08-19T02:43:38.403Z,1006.95
2018-08-19T02:44:38.381Z,1006.95
2018-08-19T02:45:38.394Z,1006.91
2018-08-19T02:46:38.352Z,1006.91
2018-08-19T02:47:38.330Z,1006.91
2018-08-19T02:48:38.321Z,1006.87
2018-08-19T02:49:38.303Z,1006.88
2018-08-19T02:50:38.313Z,1006.93
2018-08-19T02:51:38.274Z,1006.94
2018-08-19T02:52:38.251Z,1006.94
2018-08-19T02:53:38.236Z,1006.90
2018-08-19T02:54:38.217Z,1006.92
2018-08-19T02:55:38.226Z,1006.88
2018-08-19T02:56:38.184Z,1006.84
2018-08-19T02:57:38.174Z,1006.85
2018-08-19T02:58:38.170Z,1006.86
2018-08-19T02:59:38.140Z,1006.83
2018-08-19T03:00:38.152Z,1006.89
2018-08-19T03:01:38.108Z,1006.89
2018-08-19T03:02:38.096Z,1006.86
2018-08-19T03:03:38.096Z,1006.88
2018-08-19T03:04:38.068Z,1006.94
2018-08-19T03:05:38.079Z,1006.91
2018-08-19T03:06:38.039Z,1006.93
2018-08-19T03:07:38.025Z,1007.01
2018-08-19T03:08:38.006Z,1006.96
2018-08-19T03:09:37.988Z,1007.02
2018-08-19T03:10:38.009Z,1007.02
2018-08-19T03:11:37.962Z,1006.98
2018-08-19T03:12:37.941Z,1007.02
2018-08-19T03:13:37.929Z,1006.98
2018-08-19T03:14:37.918Z,1006.98
2018-08-19T03:15:37.902Z,1006.95
2018-08-19T03:16:37.914Z,1007.00
2018-08-19T03:17:37.885Z,1007.01
2018-08-19T03:18:37.860Z,1006.92
2018-08-19T03:19:37.848Z,1006.92
2018-08-19T03:20:37.860Z,1006.85
2018-08-19T03:21:37.852Z,1006.92
2018-08-19T03:22:37.814Z,1006.87
2018-08-19T03:23:37.798Z,1006.83
2018-08-19T03:24:37.792Z,1006.84
2018-08-19T03:25:37.791Z,1006.91
2018-08-19T03:26:37.806Z,1006.90
2018-08-19T03:27:37.764Z,1006.91
2018-08-19T03:28:37.764Z,1006.89
2018-08-19T03:29:37.743Z,1006.84
2018-08-19T03:30:37.736Z,1006.86
2018-08-19T03:31:37.755Z,1006.86
2018-08-19T03:32:37.725Z,1006.87
2018-08-19T03:33:37.704Z,1006.92
2018-08-19T03:34:37.696Z,1006.90
2018-08-19T03:35:37.677Z,1006.91
2018-08-19T03:36:37.663Z,1006.84
2018-08-19T03:37:37.683Z,1006.91
2018-08-19T03:38:37.636Z,1006.87
2018-08-19T03:39:37.636Z,1006.87
2018-08-19T03:40:37.603Z,1006.86
2018-08-19T03:41:37.591Z,1006.85
2018-08-19T03:42:37.603Z,1006.88
2018-08-19T03:43:37.562Z,1006.85
2018-08-19T03:44:37.531Z,1006.87
2018-08-19T03:45:37.514Z,1006.89
2018-08-19T03:46:37.498Z,1006.88
2018-08-19T03:47:37.505Z,1006.91
2018-08-19T03:48:37.462Z,1006.92
2018-08-19T03:49:37.448Z,1006.91
2018-08-19T03:50:37.443Z,1006.92
2018-08-19T03:51:37.413Z,1006.96
2018-08-19T03:52:37.420Z,1007.01
2018-08-19T03:53:37.376Z,1007.07
2018-08-19T03:54:37.360Z,1007.09
2018-08-19T03:55:37.377Z,1007.07
2018-08-19T03:56:37.313Z,1007.04
2018-08-19T03:57:37.319Z,1007.02
2018-08-19T03:58:37.267Z,1007.04
2018-08-19T03:59:37.253Z,1007.05
2018-08-19T04:00:37.230Z,1007.05
2018-08-19T04:01:37.208Z,1007.11
2018-08-19T04:02:37.216Z,1007.12
2018-08-19T04:03:37.169Z,1007.10
2018-08-19T04:04:37.158Z,1007.09
2018-08-19T04:05:37.138Z,1007.08
2018-08-19T04:06:37.125Z,1007.07
2018-08-19T04:07:37.115Z,1007.10
2018-08-19T04:08:37.128Z,1007.09
2018-08-19T04:09:37.092Z,1007.07
2018-08-19T04:10:37.080Z,1007.07
2018-08-19T04:11:37.071Z,1007.08
2018-08-19T04:12:37.060Z,1007.03
2018-08-19T04:13:37.080Z,1007.05
2018-08-19T04:14:37.046Z,1007.05
2018-08-19T04:15:37.042Z,1007.04
2018-08-19T04:16:37.032Z,1007.06
2018-08-19T04:17:37.025Z,1007.10
2018-08-19T04:18:37.066Z,1007.06
2018-08-19T04:19:37.008Z,1007.09
2018-08-19T04:20:37.001Z,1007.09
2018-08-19T04:21:36.991Z,1007.09
2018-08-19T04:22:36.982Z,1007.11
2018-08-19T04:23:37.072Z,1007.05
2018-08-19T04:24:36.964Z,1007.04
2018-08-19T04:25:36.953Z,1006.99
2018-08-19T04:26:36.951Z,1006.96
2018-08-19T04:27:36.946Z,1007.04
2018-08-19T04:28:36.941Z,1006.99
2018-08-19T04:29:36.967Z,1007.00
2018-08-19T04:30:36.928Z,1007.07
2018-08-19T04:31:36.920Z,1007.03
2018-08-19T04:32:36.916Z,1006.98
2018-08-19T04:33:36.903Z,1007.01
2018-08-19T04:34:36.921Z,1007.00
2018-08-19T04:35:36.883Z,1007.01
2018-08-19T04:36:36.873Z,1006.98
2018-08-19T04:37:36.863Z,1007.01
2018-08-19T04:38:36.856Z,1006.98
2018-08-19T04:39:36.870Z,1006.98
2018-08-19T04:40:36.839Z,1006.96
2018-08-19T04:41:36.822Z,1006.99
2018-08-19T04:42:36.812Z,1006.97
2018-08-19T04:43:36.801Z,1006.96
2018-08-19T04:44:36.819Z,1006.98
2018-08-19T04:45:36.776Z,1006.97
2018-08-19T04:46:36.774Z,1006.96
2018-08-19T04:47:36.772Z,1006.96
2018-08-19T04:48:36.749Z,1006.96
2018-08-19T04:49:36.765Z,1006.99
2018-08-19T04:50:36.727Z,1006.94
2018-08-19T04:51:36.721Z,1006.98
2018-08-19T04:52:36.713Z,1007.00
2018-08-19T04:53:36.700Z,1007.03
2018-08-19T04:54:36.733Z,1007.05
2018-08-19T04:55:36.685Z,1007.00
2018-08-19T04:56:36.680Z,1007.07
2018-08-19T04:57:36.670Z,1007.07
2018-08-19T04:58:36.666Z,1007.13
2018-08-19T04:59:36.668Z,1007.13
2018-08-19T05:00:36.680Z,1007.12
2018-08-19T05:01:36.642Z,1007.18
2018-08-19T05:02:36.712Z,1007.16
2018-08-19T05:03:36.628Z,1007.12
2018-08-19T05:04:36.615Z,1007.15
2018-08-19T05:05:36.638Z,1007.14
2018-08-19T05:06:36.605Z,1007.17
2018-08-19T05:07:36.593Z,1007.15
2018-08-19T05:08:36.590Z,1007.17
2018-08-19T05:09:36.573Z,1007.18
2018-08-19T05:10:36.608Z,1007.16
2018-08-19T05:11:36.569Z,1007.21
2018-08-19T05:12:36.561Z,1007.17
2018-08-19T05:13:36.559Z,1007.18
2018-08-19T05:14:36.548Z,1007.17
2018-08-19T05:15:36.614Z,1007.16
2018-08-19T05:16:36.546Z,1007.17
2018-08-19T05:17:36.531Z,1007.20
2018-08-19T05:18:36.543Z,1007.20
2018-08-19T05:19:36.525Z,1007.17
2018-08-19T05:20:36.545Z,1007.15
2018-08-19T05:21:36.515Z,1007.18
2018-08-19T05:22:36.628Z,1007.18
2018-08-19T05:23:36.498Z,1007.18
2018-08-19T05:24:36.481Z,1007.13
2018-08-19T05:25:36.511Z,1007.15
2018-08-19T05:26:36.467Z,1007.14
2018-08-19T05:27:36.487Z,1007.11
2018-08-19T05:28:36.460Z,1007.15
2018-08-19T05:29:36.448Z,1007.17
2018-08-19T05:30:36.472Z,1007.14
2018-08-19T05:31:36.512Z,1007.12
2018-08-19T05:32:36.429Z,1007.18
2018-08-19T05:33:36.422Z,1007.15
2018-08-19T05:34:36.416Z,1007.11
2018-08-19T05:35:36.434Z,1007.16
2018-08-19T05:36:36.417Z,1007.15
2018-08-19T05:37:36.396Z,1007.17
2018-08-19T05:38:36.391Z,1007.16
2018-08-19T05:39:36.378Z,1007.15
2018-08-19T05:40:36.402Z,1007.17
2018-08-19T05:41:36.361Z,1007.11
2018-08-19T05:42:36.358Z,1007.19
2018-08-19T05:43:36.354Z,1007.14
2018-08-19T05:44:36.341Z,1007.17
2018-08-19T05:45:36.373Z,1007.19
2018-08-19T05:46:36.350Z,1007.24
2018-08-19T05:47:36.317Z,1007.21
2018-08-19T05:48:36.310Z,1007.22
2018-08-19T05:49:36.305Z,1007.26
2018-08-19T05:50:36.286Z,1007.23
2018-08-19T05:51:36.315Z,1007.22
2018-08-19T05:52:36.259Z,1007.26
2018-08-19T05:53:36.247Z,1007.22
2018-08-19T05:54:36.232Z,1007.26
2018-08-19T05:55:36.265Z,1007.24
2018-08-19T05:56:36.244Z,1007.31
2018-08-19T05:57:36.201Z,1007.31
2018-08-19T05:58:36.187Z,1007.33
2018-08-19T05:59:36.173Z,1007.33
2018-08-19T06:00:36.176Z,1007.34
2018-08-19T06:01:36.178Z,1007.34
2018-08-19T06:02:36.140Z,1007.36
2018-08-19T06:03:36.124Z,1007.35
2018-08-19T06:04:36.112Z,1007.31
2018-08-19T06:05:36.102Z,1007.36
2018-08-19T06:06:36.126Z,1007.33
2018-08-19T06:07:36.125Z,1007.34
2018-08-19T06:08:36.053Z,1007.36
2018-08-19T06:09:36.040Z,1007.34
2018-08-19T06:10:36.036Z,1007.32
2018-08-19T06:11:36.012Z,1007.36
2018-08-19T06:12:36.029Z,1007.32
2018-08-19T06:13:35.986Z,1007.34
2018-08-19T06:14:35.974Z,1007.32
2018-08-19T06:15:35.967Z,1007.32
2018-08-19T06:16:35.953Z,1007.31
2018-08-19T06:17:35.967Z,1007.33
2018-08-19T06:18:35.927Z,1007.34
2018-08-19T06:19:35.917Z,1007.32
2018-08-19T06:20:35.923Z,1007.32
2018-08-19T06:21:35.895Z,1007.33
2018-08-19T06:22:35.913Z,1007.31
2018-08-19T06:23:35.875Z,1007.32
2018-08-19T06:24:35.881Z,1007.32
2018-08-19T06:25:35.848Z,1007.34
2018-08-19T06:26:35.843Z,1007.32
2018-08-19T06:27:35.858Z,1007.32
2018-08-19T06:28:35.836Z,1007.30
2018-08-19T06:29:35.822Z,1007.35
2018-08-19T06:30:35.818Z,1007.34
2018-08-19T06:31:35.817Z,1007.34
2018-08-19T06:32:35.837Z,1007.37
2018-08-19T06:33:35.805Z,1007.41
2018-08-19T06:34:35.909Z,1007.42
2018-08-19T06:35:35.807Z,1007.45
2018-08-19T06:36:35.806Z,1007.41
2018-08-19T06:37:35.839Z,1007.42
2018-08-19T06:38:35.794Z,1007.41
2018-08-19T06:39:35.794Z,1007.44
2018-08-19T06:40:35.791Z,1007.43
2018-08-19T06:41:35.790Z,1007.43
2018-08-19T06:42:35.785Z,1007.45
2018-08-19T06:43:35.809Z,1007.44
2018-08-19T06:44:35.778Z,1007.45
2018-08-19T06:45:35.777Z,1007.45
2018-08-19T06:46:35.776Z,1007.47
2018-08-19T06:47:35.765Z,1007.48
2018-08-19T06:48:35.791Z,1007.46
2018-08-19T06:49:35.757Z,1007.49
2018-08-19T06:50:35.749Z,1007.48
2018-08-19T06:51:35.745Z,1007.46
2018-08-19T06:52:35.748Z,1007.46
2018-08-19T06:53:35.768Z,1007.47
2018-08-19T06:54:35.738Z,1007.47
2018-08-19T06:55:35.737Z,1007.45
2018-08-19T06:56:35.731Z,1007.46
2018-08-19T06:57:35.727Z,1007.42
2018-08-19T06:58:35.747Z,1007.46
2018-08-19T06:59:35.714Z,1007.47
2018-08-19T07:00:35.708Z,1007.44
2018-08-19T07:01:35.695Z,1007.43
2018-08-19T07:02:35.686Z,1007.45
2018-08-19T07:03:35.796Z,1007.45
2018-08-19T07:04:35.656Z,1007.40
2018-08-19T07:05:35.650Z,1007.41
2018-08-19T07:06:35.631Z,1007.48
2018-08-19T07:07:35.636Z,1007.47
2018-08-19T07:08:35.638Z,1007.42
2018-08-19T07:09:35.598Z,1007.46
2018-08-19T07:10:35.587Z,1007.46
2018-08-19T07:11:35.576Z,1007.40
2018-08-19T07:12:35.564Z,1007.48
2018-08-19T07:13:35.574Z,1007.42
2018-08-19T07:14:35.540Z,1007.45
2018-08-19T07:15:35.567Z,1007.43
2018-08-19T07:16:35.502Z,1007.46
2018-08-19T07:17:35.488Z,1007.48
2018-08-19T07:18:35.538Z,1007.50
2018-08-19T07:19:35.458Z,1007.50
2018-08-19T07:20:35.440Z,1007.51
2018-08-19T07:21:35.448Z,1007.45
2018-08-19T07:22:35.423Z,1007.50
2018-08-19T07:23:35.474Z,1007.44
2018-08-19T07:24:35.376Z,1007.49
2018-08-19T07:25:35.360Z,1007.47
2018-08-19T07:26:35.349Z,1007.49
2018-08-19T07:27:35.322Z,1007.52
2018-08-19T07:28:35.326Z,1007.50
2018-08-19T07:29:35.297Z,1007.54
2018-08-19T07:30:35.273Z,1007.54
2018-08-19T07:31:35.242Z,1007.56
2018-08-19T07:32:35.223Z,1007.57
2018-08-19T07:33:35.233Z,1007.55
2018-08-19T07:34:35.207Z,1007.55
2018-08-19T07:35:35.171Z,1007.61
2018-08-19T07:36:35.146Z,1007.62
2018-08-19T07:37:35.125Z,1007.63
2018-08-19T07:38:35.129Z,1007.65
2018-08-19T07:39:35.079Z,1007.65
2018-08-19T07:40:35.053Z,1007.67
2018-08-19T07:41:35.027Z,1007.66
2018-08-19T07:42:35.007Z,1007.68
2018-08-19T07:43:35.013Z,1007.68
2018-08-19T07:44:34.949Z,1007.67
2018-08-19T07:45:34.926Z,1007.69
2018-08-19T07:46:34.919Z,1007.67
2018-08-19T07:47:34.880Z,1007.67
2018-08-19T07:48:34.857Z,1007.68
2018-08-19T07:49:34.859Z,1007.67
2018-08-19T07:50:34.808Z,1007.71
2018-08-19T07:51:34.802Z,1007.68
2018-08-19T07:52:34.758Z,1007.65
2018-08-19T07:53:34.728Z,1007.59
2018-08-19T07:54:34.725Z,1007.59
2018-08-19T07:55:34.665Z,1007.57
2018-08-19T07:56:34.643Z,1007.54
2018-08-19T07:57:34.606Z,1007.56
2018-08-19T07:58:34.589Z,1007.55
2018-08-19T07:59:34.592Z,1007.58
2018-08-19T08:00:34.525Z,1007.61
2018-08-19T08:01:34.494Z,1007.60
2018-08-19T08:02:34.464Z,1007.63
2018-08-19T08:03:34.435Z,1007.65
2018-08-19T08:04:34.436Z,1007.62
2018-08-19T08:05:34.376Z,1007.63
2018-08-19T08:06:34.347Z,1007.65
2018-08-19T08:07:34.317Z,1007.60
2018-08-19T08:08:34.291Z,1007.58
2018-08-19T08:09:34.255Z,1007.58
2018-08-19T08:10:34.245Z,1007.62
2018-08-19T08:11:34.184Z,1007.65
2018-08-19T08:12:34.149Z,1007.64
2018-08-19T08:13:34.117Z,1007.69
2018-08-19T08:14:34.088Z,1007.69
2018-08-19T08:15:34.084Z,1007.70
2018-08-19T08:16:34.024Z,1007.66
2018-08-19T08:17:33.999Z,1007.66
2018-08-19T08:18:33.974Z,1007.71
2018-08-19T08:19:33.931Z,1007.72
2018-08-19T08:20:33.932Z,1007.68
2018-08-19T08:21:34.084Z,1007.74
2018-08-19T08:22:33.826Z,1007.74
2018-08-19T08:23:33.807Z,1007.73
2018-08-19T08:24:33.764Z,1007.72
2018-08-19T08:25:33.754Z,1007.75
2018-08-19T08:26:33.694Z,1007.75
2018-08-19T08:27:33.664Z,1007.76
2018-08-19T08:28:33.641Z,1007.80
2018-08-19T08:29:33.595Z,1007.77
2018-08-19T08:30:33.587Z,1007.75
2018-08-19T08:31:33.529Z,1007.73
2018-08-19T08:32:33.492Z,1007.75
2018-08-19T08:33:33.463Z,1007.70
2018-08-19T08:34:33.430Z,1007.77
2018-08-19T08:35:33.419Z,1007.73
2018-08-19T08:36:33.352Z,1007.73
2018-08-19T08:37:33.318Z,1007.76
2018-08-19T08:38:33.280Z,1007.71
2018-08-19T08:39:33.243Z,1007.70
2018-08-19T08:40:33.219Z,1007.70
2018-08-19T08:41:33.201Z,1007.71
2018-08-19T08:42:33.136Z,1007.74
2018-08-19T08:43:33.104Z,1007.71
2018-08-19T08:44:33.117Z,1007.73
2018-08-19T08:45:33.034Z,1007.68
2018-08-19T08:46:33.020Z,1007.73
2018-08-19T08:47:33.062Z,1007.73
2018-08-19T08:48:32.922Z,1007.72
2018-08-19T08:49:32.888Z,1007.70
2018-08-19T08:50:32.844Z,1007.71
2018-08-19T08:51:32.830Z,1007.69
2018-08-19T08:52:32.767Z,1007.65
2018-08-19T08:53:32.727Z,1007.66
2018-08-19T08:54:32.691Z,1007.65
2018-08-19T08:55:32.655Z,1007.65
2018-08-19T08:56:32.686Z,1007.63
2018-08-19T08:57:32.580Z,1007.60
2018-08-19T08:58:32.544Z,1007.60
2018-08-19T08:59:32.502Z,1007.60
2018-08-19T09:00:32.465Z,1007.58
2018-08-19T09:01:32.473Z,1007.62
2018-08-19T09:02:32.397Z,1007.62
2018-08-19T09:03:32.352Z,1007.61
2018-08-19T09:04:32.295Z,1007.57
2018-08-19T09:05:32.254Z,1007.59
2018-08-19T09:06:32.203Z,1007.61
2018-08-19T09:07:32.182Z,1007.61
2018-08-19T09:08:32.106Z,1007.58
2018-08-19T09:09:32.057Z,1007.53
2018-08-19T09:10:32.023Z,1007.59
2018-08-19T09:11:31.961Z,1007.56
2018-08-19T09:12:31.940Z,1007.57
2018-08-19T09:13:31.856Z,1007.58
2018-08-19T09:14:31.806Z,1007.54
2018-08-19T09:15:31.751Z,1007.54
2018-08-19T09:16:31.701Z,1007.58
2018-08-19T09:17:31.677Z,1007.56
2018-08-19T09:18:31.600Z,1007.54
2018-08-19T09:19:31.546Z,1007.56
2018-08-19T09:20:31.495Z,1007.52
2018-08-19T09:21:31.482Z,1007.53
2018-08-19T09:22:31.432Z,1007.49
2018-08-19T09:23:31.340Z,1007.53
2018-08-19T09:24:31.279Z,1007.57
2018-08-19T09:25:31.225Z,1007.49
2018-08-19T09:26:31.167Z,1007.49
2018-08-19T09:27:31.114Z,1007.43
2018-08-19T09:28:31.092Z,1007.45
2018-08-19T09:29:31.000Z,1007.45
2018-08-19T09:30:30.948Z,1007.48
2018-08-19T09:31:30.893Z,1007.38
2018-08-19T09:32:30.839Z,1007.38
2018-08-19T09:33:30.852Z,1007.36
2018-08-19T09:34:30.725Z,1007.37
2018-08-19T09:35:30.660Z,1007.41
2018-08-19T09:36:30.616Z,1007.37
2018-08-19T09:37:30.541Z,1007.36
2018-08-19T09:38:30.504Z,1007.36
2018-08-19T09:39:30.417Z,1007.39
2018-08-19T09:40:30.355Z,1007.37
2018-08-19T09:41:30.297Z,1007.28
2018-08-19T09:42:30.224Z,1007.31
2018-08-19T09:43:30.186Z,1007.31
2018-08-19T09:44:30.092Z,1007.29
2018-08-19T09:45:30.028Z,1007.28
2018-08-19T09:46:29.961Z,1007.31
2018-08-19T09:47:29.924Z,1007.35
2018-08-19T09:48:29.858Z,1007.29
2018-08-19T09:49:29.765Z,1007.29
2018-08-19T09:50:29.696Z,1007.34
2018-08-19T09:51:29.628Z,1007.32
2018-08-19T09:52:29.562Z,1007.31
2018-08-19T09:53:29.528Z,1007.32
2018-08-19T09:54:29.433Z,1007.31
2018-08-19T09:55:29.359Z,1007.29
2018-08-19T09:56:29.294Z,1007.32
2018-08-19T09:57:29.247Z,1007.27
2018-08-19T09:58:29.156Z,1007.27
2018-08-19T09:59:29.106Z,1007.20
2018-08-19T10:00:29.020Z,1007.18
2018-08-19T10:01:28.947Z,1007.18
2018-08-19T10:02:28.879Z,1007.16
2018-08-19T10:03:28.810Z,1007.18
2018-08-19T10:04:28.760Z,1007.17
2018-08-19T10:05:28.669Z,1007.14
2018-08-19T10:06:28.602Z,1007.12
2018-08-19T10:07:28.604Z,1007.15
2018-08-19T10:08:28.463Z,1007.16
2018-08-19T10:09:28.422Z,1007.10
2018-08-19T10:10:28.329Z,1007.13
2018-08-19T10:11:28.262Z,1007.10
2018-08-19T10:12:28.197Z,1007.11
2018-08-19T10:13:28.129Z,1007.11
2018-08-19T10:14:28.089Z,1007.11
2018-08-19T10:15:27.997Z,1007.03
2018-08-19T10:16:27.935Z,1007.03
2018-08-19T10:17:27.867Z,1006.99
2018-08-19T10:18:27.804Z,1007.00
2018-08-19T10:19:27.777Z,1007.02
2018-08-19T10:20:27.673Z,1006.99
2018-08-19T10:21:27.592Z,1006.95
2018-08-19T10:22:27.518Z,1006.98
2018-08-19T10:23:27.446Z,1007.05
2018-08-19T10:24:27.371Z,1006.95
2018-08-19T10:25:27.326Z,1006.99
2018-08-19T10:26:27.256Z,1007.00
2018-08-19T10:27:27.141Z,1006.97
2018-08-19T10:28:27.061Z,1006.98
2018-08-19T10:29:26.988Z,1006.93
2018-08-19T10:30:26.931Z,1006.96
2018-08-19T10:31:26.907Z,1006.93
2018-08-19T10:32:26.762Z,1006.92
2018-08-19T10:33:26.676Z,1006.95
2018-08-19T10:34:26.598Z,1006.90
2018-08-19T10:35:26.545Z,1006.89
2018-08-19T10:36:26.449Z,1006.91
2018-08-19T10:37:26.365Z,1006.92
2018-08-19T10:38:26.276Z,1006.97
2018-08-19T10:39:26.195Z,1006.95
2018-08-19T10:40:26.137Z,1006.97
2018-08-19T10:41:26.027Z,1006.95
2018-08-19T10:42:25.940Z,1006.93
2018-08-19T10:43:25.858Z,1006.94
2018-08-19T10:44:25.780Z,1006.89
2018-08-19T10:45:25.724Z,1006.84
2018-08-19T10:46:25.618Z,1006.86
2018-08-19T10:47:25.536Z,1006.80
2018-08-19T10:48:25.457Z,1006.78
2018-08-19T10:49:25.382Z,1006.79
2018-08-19T10:50:25.324Z,1006.76
2018-08-19T10:51:25.216Z,1006.67
2018-08-19T10:52:25.131Z,1006.71
2018-08-19T10:53:25.195Z,1006.72
2018-08-19T10:54:24.956Z,1006.66
2018-08-19T10:55:24.894Z,1006.70
2018-08-19T10:56:24.777Z,1006.64
2018-08-19T10:57:24.685Z,1006.64
2018-08-19T10:58:24.675Z,1006.61
2018-08-19T10:59:24.510Z,1006.59
2018-08-19T11:00:24.446Z,1006.54
2018-08-19T11:01:24.334Z,1006.52
2018-08-19T11:02:24.253Z,1006.58
2018-08-19T11:03:24.158Z,1006.51
2018-08-19T11:04:24.066Z,1006.51
2018-08-19T11:05:24.005Z,1006.48
2018-08-19T11:06:23.896Z,1006.50
2018-08-19T11:07:23.804Z,1006.50
2018-08-19T11:08:23.708Z,1006.50
2018-08-19T11:09:23.623Z,1006.49
2018-08-19T11:10:23.550Z,1006.44
2018-08-19T11:11:23.429Z,1006.43
2018-08-19T11:12:23.339Z,1006.41
2018-08-19T11:13:23.298Z,1006.38
2018-08-19T11:14:23.186Z,1006.41
2018-08-19T11:15:23.112Z,1006.36
2018-08-19T11:16:22.971Z,1006.37
2018-08-19T11:17:22.883Z,1006.35
2018-08-19T11:18:22.796Z,1006.33
2018-08-19T11:19:22.696Z,1006.31
2018-08-19T11:20:22.599Z,1006.32
2018-08-19T11:21:22.536Z,1006.31
2018-08-19T11:22:22.409Z,1006.28
2018-08-19T11:23:22.309Z,1006.28
2018-08-19T11:24:22.212Z,1006.25
2018-08-19T11:25:22.121Z,1006.26
2018-08-19T11:26:22.040Z,1006.22
2018-08-19T11:27:21.913Z,1006.22
2018-08-19T11:28:21.818Z,1006.20
2018-08-19T11:29:21.719Z,1006.17
2018-08-19T11:30:21.620Z,1006.14
2018-08-19T11:31:21.635Z,1006.15
2018-08-19T11:32:21.422Z,1006.14
2018-08-19T11:33:21.310Z,1006.14
2018-08-19T11:34:21.208Z,1006.08
2018-08-19T11:35:21.213Z,1006.07
2018-08-19T11:36:21.036Z,1006.06
2018-08-19T11:37:20.888Z,1006.06
2018-08-19T11:38:20.783Z,1006.05
2018-08-19T11:39:20.672Z,1006.10
2018-08-19T11:40:20.570Z,1006.06
2018-08-19T11:41:20.545Z,1006.02
2018-08-19T11:42:20.370Z,1006.00
2018-08-19T11:43:20.363Z,1005.94
2018-08-19T11:44:20.147Z,1006.00
2018-08-19T11:45:20.042Z,1005.99
2018-08-19T11:46:19.930Z,1006.04
2018-08-19T11:47:19.851Z,1006.00
2018-08-19T11:48:19.713Z,1006.05
2018-08-19T11:49:19.607Z,1006.02
2018-08-19T11:50:19.500Z,1006.02
2018-08-19T11:51:19.388Z,1005.98
2018-08-19T11:52:19.313Z,1005.98
2018-08-19T11:53:19.169Z,1006.04
2018-08-19T11:54:19.054Z,1005.96
2018-08-19T11:55:18.963Z,1005.97
2018-08-19T11:56:18.833Z,1005.96
2018-08-19T11:57:18.742Z,1005.93
2018-08-19T11:58:18.604Z,1005.94
2018-08-19T11:59:18.491Z,1005.98
2018-08-19T12:00:18.377Z,1005.99
2018-08-19T12:01:18.258Z,1005.95
2018-08-19T12:02:18.169Z,1005.95
2018-08-19T12:03:18.029Z,1005.91
2018-08-19T12:04:17.917Z,1005.97
2018-08-19T12:05:17.800Z,1005.89